createdAt,value
2018-02-05T00:01:47.282Z,20.60
2018-02-05T00:04:15.806Z,20.30
2018-02-05T00:06:44.088Z,21.80
2018-02-05T00:09:12.489Z,19.87
2018-02-05T00:11:40.756Z,16.80
2018-02-05T00:14:09.083Z,18.85
2018-02-05T00:16:37.579Z,21.45
2018-02-05T00:19:05.866Z,23.30
2018-02-05T00:21:34.288Z,17.67
2018-02-05T00:24:02.424Z,20.83
2018-02-05T00:26:30.568Z,19.15
2018-02-05T00:28:58.860Z,24.12
2018-02-05T00:31:27.162Z,17.10
2018-02-05T00:33:55.973Z,18.42
2018-02-05T00:36:24.257Z,17.30
2018-02-05T00:38:52.381Z,15.52
2018-02-05T00:41:20.481Z,16.50
2018-02-05T00:43:48.744Z,16.65
2018-02-05T00:46:17.140Z,15.95
2018-02-05T00:48:45.322Z,13.38
2018-02-05T00:51:13.779Z,15.27
2018-02-05T00:53:43.363Z,10.35
2018-02-05T00:56:11.754Z,10.90
2018-02-05T00:58:39.980Z,7.15
2018-02-05T01:01:08.343Z,9.43
2018-02-05T01:03:36.374Z,9.27
2018-02-05T01:06:04.536Z,11.48
2018-02-05T01:08:32.724Z,10.70
2018-02-05T01:11:00.924Z,10.68
2018-02-05T01:13:29.004Z,12.82
2018-02-05T01:15:57.217Z,8.27
2018-02-05T01:18:25.230Z,7.43
2018-02-05T01:20:53.507Z,7.82
2018-02-05T01:23:21.482Z,11.23
2018-02-05T01:25:49.775Z,9.43
2018-02-05T01:28:18.280Z,11.95
2018-02-05T01:30:46.657Z,11.00
2018-02-05T01:33:14.974Z,14.13
2018-02-05T01:35:43.281Z,12.77
2018-02-05T01:38:11.464Z,15.32
2018-02-05T01:40:40.088Z,14.13
2018-02-05T01:43:08.277Z,18.70
2018-02-05T01:45:36.454Z,16.67
2018-02-05T01:48:05.276Z,14.15
2018-02-05T01:50:33.465Z,12.20
2018-02-05T01:53:01.565Z,12.98
2018-02-05T01:55:29.739Z,13.43
2018-02-05T01:57:57.839Z,15.98
2018-02-05T02:00:26.039Z,12.13
2018-02-05T02:02:54.282Z,18.73
2018-02-05T02:05:22.617Z,15.15
2018-02-05T02:07:50.915Z,11.95
2018-02-05T02:10:19.247Z,14.93
2018-02-05T02:12:48.035Z,17.62
2018-02-05T02:15:16.622Z,17.17
2018-02-05T02:17:45.864Z,13.23
2018-02-05T02:20:14.137Z,18.15
2018-02-05T02:22:42.441Z,16.98
2018-02-05T02:25:10.655Z,13.68
2018-02-05T02:27:38.768Z,20.98
2018-02-05T02:30:07.087Z,16.60
2018-02-05T02:32:35.423Z,15.27
2018-02-05T02:35:03.535Z,13.62
2018-02-05T02:37:31.625Z,11.88
2018-02-05T02:39:59.802Z,9.23
2018-02-05T02:42:27.856Z,7.95
2018-02-05T02:44:56.081Z,9.30
2018-02-05T02:47:24.195Z,9.90
2018-02-05T02:49:52.477Z,10.85
2018-02-05T02:52:20.985Z,10.02
2018-02-05T02:54:49.277Z,9.85
2018-02-05T02:57:17.678Z,8.80
2018-02-05T02:59:46.003Z,10.00
2018-02-05T03:02:14.260Z,9.30
2018-02-05T03:04:42.559Z,11.12
2018-02-05T03:07:10.877Z,9.55
2018-02-05T03:09:38.990Z,10.98
2018-02-05T03:12:07.154Z,12.88
2018-02-05T03:14:35.475Z,9.73
2018-02-05T03:17:03.624Z,9.93
2018-02-05T03:19:31.735Z,10.75
2018-02-05T03:21:59.916Z,7.47
2018-02-05T03:24:28.115Z,11.30
2018-02-05T03:26:56.317Z,9.23
2018-02-05T03:29:24.625Z,7.43
2018-02-05T03:31:53.103Z,5.45
2018-02-05T03:34:21.400Z,5.30
2018-02-05T03:36:49.707Z,6.32
2018-02-05T03:39:17.944Z,6.20
2018-02-05T03:41:46.297Z,5.97
2018-02-05T03:44:14.566Z,6.87
2018-02-05T03:46:43.515Z,6.87
2018-02-05T03:49:11.784Z,6.90
2018-02-05T03:51:39.994Z,5.55
2018-02-05T03:54:08.283Z,4.85
2018-02-05T03:56:36.563Z,7.05
2018-02-05T03:59:04.685Z,7.40
2018-02-05T04:01:32.874Z,4.55
2018-02-05T04:04:00.844Z,5.72
2018-02-05T04:06:29.056Z,6.60
2018-02-05T04:08:57.061Z,5.37
2018-02-05T04:11:25.442Z,7.18
2018-02-05T04:13:53.843Z,7.37
2018-02-05T04:16:22.078Z,5.97
2018-02-05T04:18:50.447Z,6.82
2018-02-05T04:21:18.741Z,8.80
2018-02-05T04:23:47.048Z,8.00
2018-02-05T04:26:15.181Z,8.93
2018-02-05T04:28:43.539Z,8.80
2018-02-05T04:31:11.724Z,15.15
2018-02-05T04:33:39.908Z,14.07
2018-02-05T04:36:08.079Z,15.75
2018-02-05T04:38:36.096Z,15.50
2018-02-05T04:41:04.321Z,17.87
2018-02-05T04:43:32.601Z,14.02
2018-02-05T04:46:00.796Z,14.45
2018-02-05T04:48:28.910Z,15.07
2018-02-05T04:50:57.074Z,17.37
2018-02-05T04:53:25.364Z,22.42
2018-02-05T04:55:53.781Z,22.65
2018-02-05T04:58:22.074Z,22.30
2018-02-05T05:00:50.364Z,21.50
2018-02-05T05:03:18.555Z,21.45
2018-02-05T05:05:46.890Z,21.55
2018-02-05T05:08:15.039Z,21.77
2018-02-05T05:10:43.335Z,24.00
2018-02-05T05:13:11.643Z,23.48
2018-02-05T05:15:39.848Z,18.45
2018-02-05T05:18:08.024Z,19.60
2018-02-05T05:20:36.207Z,21.75
2018-02-05T05:23:04.219Z,24.92
2018-02-05T05:25:32.404Z,22.55
2018-02-05T05:28:00.510Z,22.27
2018-02-05T05:30:28.901Z,21.30
2018-02-05T05:32:57.556Z,19.25
2018-02-05T05:35:25.954Z,19.35
2018-02-05T05:37:54.194Z,21.52
2018-02-05T05:40:22.396Z,23.20
2018-02-05T05:42:50.755Z,25.45
2018-02-05T05:45:18.898Z,23.10
2018-02-05T05:47:47.315Z,20.00
2018-02-05T05:50:15.476Z,17.52
2018-02-05T05:52:43.888Z,19.67
2018-02-05T05:55:12.067Z,22.65
2018-02-05T05:57:40.239Z,27.52
2018-02-05T06:00:08.243Z,19.65
2018-02-05T06:02:36.378Z,20.62
2018-02-05T06:05:04.480Z,21.83
2018-02-05T06:07:32.930Z,21.70
2018-02-05T06:10:01.239Z,19.90
2018-02-05T06:12:29.528Z,21.95
2018-02-05T06:14:57.840Z,26.10
2018-02-05T06:17:26.237Z,23.15
2018-02-05T06:19:54.636Z,22.67
2018-02-05T06:22:23.134Z,18.08
2018-02-05T06:24:52.336Z,16.92
2018-02-05T06:27:20.747Z,15.95
2018-02-05T06:29:48.836Z,12.18
2018-02-05T06:32:16.946Z,13.50
2018-02-05T06:34:45.197Z,15.70
2018-02-05T06:37:13.421Z,13.55
2018-02-05T06:39:41.517Z,16.95
2018-02-05T06:42:09.661Z,14.27
2018-02-05T06:44:37.701Z,14.27
2018-02-05T06:47:06.002Z,18.12
2018-02-05T06:49:34.279Z,14.82
2018-02-05T06:52:02.782Z,17.20
2018-02-05T06:54:31.286Z,19.70
2018-02-05T06:56:59.576Z,19.48
2018-02-05T06:59:28.300Z,14.23
2018-02-05T07:01:56.597Z,13.60
2018-02-05T07:04:24.891Z,11.68
2018-02-05T07:06:52.945Z,11.05
2018-02-05T07:09:21.163Z,11.15
2018-02-05T07:11:49.381Z,11.80
2018-02-05T07:14:17.449Z,10.25
2018-02-05T07:16:45.677Z,14.07
2018-02-05T07:19:14.052Z,9.55
2018-02-05T07:21:42.317Z,8.20
2018-02-05T07:24:10.542Z,11.38
2018-02-05T07:26:38.942Z,10.85
2018-02-05T07:29:07.236Z,10.88
2018-02-05T07:31:35.541Z,13.52
2018-02-05T07:34:03.675Z,15.60
2018-02-05T07:36:31.816Z,13.95
2018-02-05T07:39:00.109Z,10.35
2018-02-05T07:41:28.429Z,10.45
2018-02-05T07:43:56.853Z,10.85
2018-02-05T07:46:25.321Z,11.05
2018-02-05T07:48:53.514Z,11.05
2018-02-05T07:51:21.913Z,8.65
2018-02-05T07:53:50.212Z,9.55
2018-02-05T07:56:18.406Z,11.75
2018-02-05T07:58:46.685Z,11.98
2018-02-05T08:01:14.760Z,14.95
2018-02-05T08:03:42.982Z,15.70
2018-02-05T08:06:11.181Z,13.27
2018-02-05T08:08:39.235Z,14.68
2018-02-05T08:11:07.476Z,27.60
2018-02-05T08:13:35.665Z,21.77
2018-02-05T08:16:03.953Z,31.40
2018-02-05T08:18:32.262Z,27.15
2018-02-05T08:21:00.552Z,23.73
2018-02-05T08:23:28.949Z,21.77
2018-02-05T08:25:57.148Z,24.95
2018-02-05T08:28:25.311Z,26.73
2018-02-05T08:30:54.040Z,27.05
2018-02-05T08:33:22.239Z,22.83
2018-02-05T08:35:50.635Z,21.25
2018-02-05T08:38:18.781Z,21.80
2018-02-05T08:40:47.850Z,21.10
2018-02-05T08:43:15.941Z,22.15
2018-02-05T08:45:44.050Z,22.52
2018-02-05T08:48:12.527Z,20.35
2018-02-05T08:50:40.717Z,22.87
2018-02-05T08:53:08.922Z,21.25
2018-02-05T08:55:37.214Z,24.63
2018-02-05T08:58:05.607Z,23.73
2018-02-05T09:00:33.808Z,23.77
2018-02-05T09:03:02.111Z,22.62
2018-02-05T09:05:30.191Z,21.85
2018-02-05T09:07:58.391Z,22.52
2018-02-05T09:10:26.470Z,20.42
2018-02-05T09:12:54.669Z,23.75
2018-02-05T09:15:22.873Z,22.33
2018-02-05T09:17:51.059Z,27.92
2018-02-05T09:20:19.262Z,23.23
2018-02-05T09:22:47.463Z,23.38
2018-02-05T09:25:15.407Z,26.70
2018-02-05T09:27:43.642Z,29.10
2018-02-05T09:30:11.723Z,22.30
2018-02-05T09:32:39.922Z,21.80
2018-02-05T09:35:08.016Z,22.00
2018-02-05T09:37:36.214Z,21.48
2018-02-05T09:40:04.389Z,24.33
2018-02-05T09:42:32.709Z,24.63
2018-02-05T09:45:00.804Z,22.60
2018-02-05T09:47:29.197Z,26.75
2018-02-05T09:49:57.386Z,23.65
2018-02-05T09:52:25.580Z,25.12
2018-02-05T09:54:53.783Z,37.65
2018-02-05T09:57:21.964Z,25.77
2018-02-05T09:59:50.056Z,51.75
2018-02-05T10:02:18.261Z,34.63
2018-02-05T10:04:46.440Z,40.47
2018-02-05T10:07:14.552Z,23.87
2018-02-05T10:09:42.642Z,26.23
2018-02-05T10:12:10.835Z,25.08
2018-02-05T10:14:39.127Z,20.20
2018-02-05T10:17:07.421Z,28.02
2018-02-05T10:19:35.715Z,18.70
2018-02-05T10:22:03.797Z,20.25
2018-02-05T10:24:32.101Z,22.37
2018-02-05T10:27:00.189Z,23.00
2018-02-05T10:29:28.403Z,25.30
2018-02-05T10:31:56.494Z,22.50
2018-02-05T10:34:24.788Z,26.08
2018-02-05T10:36:52.988Z,23.08
2018-02-05T10:39:21.378Z,19.85
2018-02-05T10:41:49.580Z,21.65
2018-02-05T10:44:17.780Z,22.50
2018-02-05T10:46:45.960Z,23.65
2018-02-05T10:49:14.155Z,24.10
2018-02-05T10:51:42.289Z,23.23
2018-02-05T10:54:10.538Z,25.42
2018-02-05T10:56:38.736Z,25.70
2018-02-05T10:59:07.030Z,21.30
2018-02-05T11:01:35.233Z,20.62
2018-02-05T11:04:03.437Z,21.23
2018-02-05T11:06:31.831Z,21.02
2018-02-05T11:09:00.026Z,24.30
2018-02-05T11:11:28.200Z,24.02
2018-02-05T11:13:56.317Z,18.35
2018-02-05T11:16:24.333Z,18.62
2018-02-05T11:18:52.683Z,24.95
2018-02-05T11:21:20.877Z,20.75
2018-02-05T11:23:49.139Z,21.90
2018-02-05T11:26:17.301Z,19.73
2018-02-05T11:28:45.683Z,21.77
2018-02-05T11:31:14.123Z,20.33
2018-02-05T11:33:42.307Z,29.52
2018-02-05T11:36:10.304Z,24.40
2018-02-05T11:38:38.708Z,24.77
2018-02-05T11:41:07.877Z,21.90
2018-02-05T11:43:36.161Z,21.30
2018-02-05T11:46:04.468Z,22.90
2018-02-05T11:48:32.680Z,24.12
2018-02-05T11:51:00.957Z,18.10
2018-02-05T11:53:29.042Z,22.60
2018-02-05T11:55:57.392Z,21.65
2018-02-05T11:58:25.533Z,21.05
2018-02-05T12:00:53.954Z,35.30
2018-02-05T12:03:22.137Z,31.92
2018-02-05T12:05:50.440Z,24.95
2018-02-05T12:08:18.620Z,29.27
2018-02-05T12:10:46.820Z,24.55
2018-02-05T12:13:15.020Z,22.80
2018-02-05T12:15:43.148Z,24.70
2018-02-05T12:18:11.320Z,23.45
2018-02-05T12:20:40.631Z,22.45
2018-02-05T12:23:08.921Z,24.48
2018-02-05T12:25:37.004Z,28.80
2018-02-05T12:28:05.209Z,32.28
2018-02-05T12:30:33.412Z,25.23
2018-02-05T12:33:01.691Z,20.55
2018-02-05T12:35:29.672Z,24.17
2018-02-05T12:37:58.435Z,23.17
2018-02-05T12:40:26.577Z,27.48
2018-02-05T12:42:54.677Z,26.40
2018-02-05T12:45:22.858Z,29.35
2018-02-05T12:47:51.054Z,20.42
2018-02-05T12:50:19.890Z,23.52
2018-02-05T12:52:48.143Z,19.27
2018-02-05T12:55:16.463Z,19.65
2018-02-05T12:57:44.592Z,20.85
2018-02-05T13:00:13.120Z,21.25
2018-02-05T13:02:41.356Z,23.95
2018-02-05T13:05:09.650Z,23.73
2018-02-05T13:07:37.854Z,31.67
2018-02-05T13:10:06.283Z,20.77
2018-02-05T13:12:34.742Z,20.20
2018-02-05T13:15:03.036Z,18.98
2018-02-05T13:17:31.174Z,23.83
2018-02-05T13:19:59.274Z,27.15
2018-02-05T13:22:27.534Z,22.65
2018-02-05T13:24:55.534Z,21.15
2018-02-05T13:27:23.614Z,20.50
2018-02-05T13:29:51.798Z,22.05
2018-02-05T13:32:19.888Z,27.27
2018-02-05T13:34:48.087Z,21.80
2018-02-05T13:37:16.187Z,23.55
2018-02-05T13:39:44.587Z,22.73
2018-02-05T13:42:12.874Z,25.23
2018-02-05T13:44:41.473Z,25.90
2018-02-05T13:47:09.575Z,23.25
2018-02-05T13:49:37.765Z,22.10
2018-02-05T13:52:06.074Z,19.65
2018-02-05T13:54:34.147Z,19.75
2018-02-05T13:57:02.325Z,20.08
2018-02-05T13:59:30.538Z,20.65
2018-02-05T14:01:58.839Z,24.55
2018-02-05T14:04:27.036Z,21.23
2018-02-05T14:06:55.017Z,19.87
2018-02-05T14:09:23.118Z,22.45
2018-02-05T14:11:51.308Z,18.02
2018-02-05T14:14:19.500Z,24.77
2018-02-05T14:16:47.802Z,20.62
2018-02-05T14:19:16.001Z,21.52
2018-02-05T14:21:44.095Z,20.17
2018-02-05T14:24:12.380Z,19.62
2018-02-05T14:26:40.576Z,23.70
2018-02-05T14:29:08.762Z,21.20
2018-02-05T14:31:36.858Z,17.33
2018-02-05T14:34:05.466Z,17.23
2018-02-05T14:36:33.657Z,18.55
2018-02-05T14:39:01.860Z,16.00
2018-02-05T14:41:31.285Z,21.60
2018-02-05T14:43:59.777Z,17.37
2018-02-05T14:46:27.977Z,18.48
2018-02-05T14:48:56.160Z,22.73
2018-02-05T14:51:24.158Z,21.85
2018-02-05T14:53:52.356Z,23.15
2018-02-05T14:56:20.535Z,17.75
2018-02-05T14:58:48.736Z,17.05
2018-02-05T15:01:16.943Z,16.90
2018-02-05T15:03:45.130Z,16.30
2018-02-05T15:06:13.433Z,15.43
2018-02-05T15:08:41.615Z,19.12
2018-02-05T15:11:09.820Z,19.08
2018-02-05T15:13:38.007Z,17.98
2018-02-05T15:16:06.198Z,21.10
2018-02-05T15:18:34.298Z,21.87
2018-02-05T15:21:02.376Z,17.75
2018-02-05T15:23:30.574Z,23.05
2018-02-05T15:25:58.777Z,18.52
2018-02-05T15:28:26.968Z,23.58
2018-02-05T15:30:55.175Z,23.27
2018-02-05T15:33:23.458Z,22.10
2018-02-05T15:35:51.756Z,22.87
2018-02-05T15:38:20.158Z,19.42
2018-02-05T15:40:48.398Z,20.92
2018-02-05T15:43:16.666Z,19.80
2018-02-05T15:45:44.955Z,19.58
2018-02-05T15:48:13.134Z,22.55
2018-02-05T15:50:41.344Z,17.33
2018-02-05T15:53:09.415Z,19.75
2018-02-05T15:55:37.628Z,20.25
2018-02-05T15:58:05.819Z,15.88
2018-02-05T16:00:34.010Z,20.20
2018-02-05T16:03:02.094Z,21.25
2018-02-05T16:05:30.300Z,22.58
2018-02-05T16:07:58.494Z,19.92
2018-02-05T16:10:26.694Z,15.95
2018-02-05T16:12:54.980Z,20.58
2018-02-05T16:15:23.284Z,17.98
2018-02-05T16:17:51.568Z,21.10
2018-02-05T16:20:19.668Z,18.05
2018-02-05T16:22:47.698Z,26.42
2018-02-05T16:25:16.776Z,20.10
2018-02-05T16:27:44.957Z,18.42
2018-02-05T16:30:13.157Z,15.73
2018-02-05T16:32:41.357Z,14.52
2018-02-05T16:35:09.437Z,17.92
2018-02-05T16:37:37.637Z,15.98
2018-02-05T16:40:05.748Z,17.37
2018-02-05T16:42:33.916Z,13.35
2018-02-05T16:45:02.012Z,13.38
2018-02-05T16:47:30.209Z,14.18
2018-02-05T16:49:58.524Z,14.05
2018-02-05T16:52:26.915Z,16.45
2018-02-05T16:54:55.239Z,21.08
2018-02-05T16:57:23.395Z,14.80
2018-02-05T16:59:51.592Z,19.83
2018-02-05T17:02:19.892Z,16.10
2018-02-05T17:04:48.796Z,16.02
2018-02-05T17:07:17.291Z,19.58
2018-02-05T17:09:45.396Z,18.30
2018-02-05T17:12:13.695Z,14.55
2018-02-05T17:14:41.893Z,15.23
2018-02-05T17:17:10.075Z,12.45
2018-02-05T17:19:38.175Z,16.08
2018-02-05T17:22:06.376Z,13.75
2018-02-05T17:24:34.467Z,15.32
2018-02-05T17:27:02.651Z,13.68
2018-02-05T17:29:30.752Z,16.60
2018-02-05T17:31:58.949Z,15.77
2018-02-05T17:34:27.133Z,17.75
2018-02-05T17:36:55.320Z,15.93
2018-02-05T17:39:23.614Z,19.48
2018-02-05T17:41:51.923Z,34.38
2018-02-05T17:44:20.119Z,37.30
2018-02-05T17:46:48.288Z,28.45
2018-02-05T17:49:16.340Z,16.70
2018-02-05T17:51:44.587Z,15.88
2018-02-05T17:54:12.696Z,16.85
2018-02-05T17:56:40.886Z,16.42
2018-02-05T17:59:08.979Z,18.60
2018-02-05T18:01:37.168Z,16.98
2018-02-05T18:04:05.359Z,20.70
2018-02-05T18:06:33.557Z,16.77
2018-02-05T18:09:01.748Z,21.67
2018-02-05T18:11:30.559Z,20.88
2018-02-05T18:13:58.762Z,19.87
2018-02-05T18:16:27.228Z,20.05
2018-02-05T18:18:55.274Z,23.08
2018-02-05T18:21:23.443Z,29.95
2018-02-05T18:23:51.748Z,23.38
2018-02-05T18:26:19.929Z,19.12
2018-02-05T18:28:48.015Z,21.27
2018-02-05T18:31:16.217Z,18.23
2018-02-05T18:33:44.401Z,19.85
2018-02-05T18:36:12.724Z,18.25
2018-02-05T18:38:40.999Z,21.52
2018-02-05T18:41:09.097Z,21.05
2018-02-05T18:43:37.905Z,21.15
2018-02-05T18:46:06.199Z,19.92
2018-02-05T18:48:34.509Z,37.75
2018-02-05T18:51:02.790Z,30.55
2018-02-05T18:53:31.197Z,29.10
2018-02-05T18:55:59.498Z,26.95
2018-02-05T18:58:27.898Z,24.27
2018-02-05T19:00:56.077Z,26.15
2018-02-05T19:03:24.391Z,25.30
2018-02-05T19:05:52.677Z,25.52
2018-02-05T19:08:20.806Z,26.25
2018-02-05T19:10:48.936Z,27.17
2018-02-05T19:13:17.160Z,26.33
2018-02-05T19:15:45.265Z,21.40
2018-02-05T19:18:13.456Z,25.05
2018-02-05T19:20:41.642Z,23.70
2018-02-05T19:23:09.883Z,27.17
2018-02-05T19:25:38.061Z,28.10
2018-02-05T19:28:06.189Z,31.30
2018-02-05T19:30:34.321Z,28.42
2018-02-05T19:33:02.441Z,24.65
2018-02-05T19:35:30.801Z,32.58
2018-02-05T19:37:59.109Z,30.55
2018-02-05T19:40:27.302Z,33.45
2018-02-05T19:42:55.701Z,29.45
2018-02-05T19:45:23.782Z,39.38
2018-02-05T19:47:51.990Z,29.77
2018-02-05T19:50:20.089Z,22.27
2018-02-05T19:52:48.193Z,24.95
2018-02-05T19:55:16.216Z,22.50
2018-02-05T19:57:44.238Z,27.08
2018-02-05T20:00:12.458Z,24.33
2018-02-05T20:02:40.642Z,27.35
2018-02-05T20:05:08.738Z,28.62
2018-02-05T20:07:37.046Z,24.00
2018-02-05T20:10:05.219Z,22.73
2018-02-05T20:12:33.419Z,23.80
2018-02-05T20:15:01.424Z,24.52
2018-02-05T20:17:29.598Z,23.87
2018-02-05T20:19:57.879Z,21.73
2018-02-05T20:22:26.086Z,27.33
2018-02-05T20:24:54.187Z,24.67
2018-02-05T20:27:22.367Z,24.25
2018-02-05T20:29:50.567Z,24.23
2018-02-05T20:32:18.766Z,27.30
2018-02-05T20:34:46.969Z,22.20
2018-02-05T20:37:15.086Z,27.45
2018-02-05T20:39:43.266Z,31.02
2018-02-05T20:42:11.586Z,31.08
2018-02-05T20:44:39.746Z,26.42
2018-02-05T20:47:07.834Z,24.65
2018-02-05T20:49:36.034Z,30.80
2018-02-05T20:52:04.328Z,28.30
2018-02-05T20:54:32.506Z,25.95
2018-02-05T20:57:00.607Z,29.15
2018-02-05T20:59:28.679Z,31.12
2018-02-05T21:01:56.922Z,21.75
2018-02-05T21:04:24.983Z,27.67
2018-02-05T21:06:53.087Z,21.67
2018-02-05T21:09:21.886Z,24.80
2018-02-05T21:11:50.008Z,24.80
2018-02-05T21:14:18.366Z,28.45
2018-02-05T21:16:46.985Z,29.15
2018-02-05T21:19:15.066Z,24.45
2018-02-05T21:21:42.965Z,32.97
2018-02-05T21:24:11.148Z,25.17
2018-02-05T21:26:39.246Z,25.27
2018-02-05T21:29:07.445Z,30.10
2018-02-05T21:31:35.516Z,24.77
2018-02-05T21:34:03.725Z,25.60
2018-02-05T21:36:31.713Z,28.02
2018-02-05T21:38:59.905Z,24.30
2018-02-05T21:41:27.989Z,27.23
2018-02-05T21:43:56.185Z,20.70
2018-02-05T21:46:24.179Z,29.17
2018-02-05T21:48:52.385Z,30.88
2018-02-05T21:51:20.458Z,29.40
2018-02-05T21:53:48.657Z,26.55
2018-02-05T21:56:16.750Z,26.08
2018-02-05T21:58:44.961Z,27.50
2018-02-05T22:01:13.355Z,25.60
2018-02-05T22:03:41.544Z,31.10
2018-02-05T22:06:09.477Z,25.42
2018-02-05T22:08:37.538Z,27.73
2018-02-05T22:11:05.608Z,36.40
2018-02-05T22:13:33.805Z,20.50
2018-02-05T22:16:01.904Z,25.40
2018-02-05T22:18:30.095Z,26.75
2018-02-05T22:20:58.121Z,28.10
2018-02-05T22:23:26.273Z,24.70
2018-02-05T22:25:54.392Z,26.73
2018-02-05T22:28:22.603Z,31.02
2018-02-05T22:30:50.856Z,26.90
2018-02-05T22:33:19.167Z,30.33
2018-02-05T22:35:47.456Z,28.00
2018-02-05T22:38:15.586Z,28.23
2018-02-05T22:40:43.758Z,23.35
2018-02-05T22:43:11.946Z,27.08
2018-02-05T22:45:40.029Z,30.25
2018-02-05T22:48:08.337Z,24.85
2018-02-05T22:50:36.700Z,27.98
2018-02-05T22:53:05.135Z,27.48
2018-02-05T22:55:33.141Z,27.70
2018-02-05T22:58:01.415Z,25.73
2018-02-05T23:00:29.393Z,33.08
2018-02-05T23:02:57.590Z,25.90
2018-02-05T23:05:25.789Z,27.35
2018-02-05T23:07:53.991Z,29.58
2018-02-05T23:10:22.047Z,25.75
2018-02-05T23:12:50.115Z,25.83
2018-02-05T23:15:18.208Z,26.52
2018-02-05T23:17:46.451Z,28.98
2018-02-05T23:20:14.658Z,28.95
2018-02-05T23:22:42.954Z,29.55
2018-02-05T23:25:11.256Z,32.40
2018-02-05T23:27:39.438Z,26.15
2018-02-05T23:30:07.959Z,31.42
2018-02-05T23:32:36.719Z,27.13
2018-02-05T23:35:04.898Z,35.47
2018-02-05T23:37:33.266Z,39.17
2018-02-05T23:40:01.442Z,29.30
2018-02-05T23:42:29.556Z,28.62
2018-02-05T23:44:57.821Z,31.00
2018-02-05T23:47:26.011Z,26.50
2018-02-05T23:49:54.315Z,32.65
2018-02-05T23:52:22.335Z,29.15
2018-02-05T23:54:50.693Z,28.85
2018-02-05T23:57:18.801Z,28.00
2018-02-05T23:59:47.310Z,25.23
